createdAt,value
2023-06-11T00:00:52.282Z,450.00
2023-06-11T00:01:52.258Z,452.00
2023-06-11T00:02:52.421Z,451.00
2023-06-11T00:03:52.326Z,453.00
2023-06-11T00:04:52.470Z,454.00
2023-06-11T00:05:52.306Z,455.00
2023-06-11T00:06:52.277Z,457.00
2023-06-11T00:07:52.297Z,456.00
2023-06-11T00:08:52.277Z,453.00
2023-06-11T00:09:52.314Z,452.00
2023-06-11T00:10:52.306Z,449.00
2023-06-11T00:11:52.291Z,448.00
2023-06-11T00:12:52.327Z,448.00
2023-06-11T00:13:52.298Z,448.00
2023-06-11T00:14:52.327Z,449.00
2023-06-11T00:15:52.407Z,450.00
2023-06-11T00:16:52.361Z,450.00
2023-06-11T00:17:52.424Z,451.00
2023-06-11T00:18:52.380Z,450.00
2023-06-11T00:19:52.412Z,449.00
2023-06-11T00:20:52.406Z,452.00
2023-06-11T00:21:52.420Z,454.00
2023-06-11T00:22:52.421Z,456.00
2023-06-11T00:23:52.466Z,457.00
2023-06-11T00:24:52.464Z,458.00
2023-06-11T00:25:52.509Z,459.00
2023-06-11T00:26:52.461Z,461.00
2023-06-11T00:27:52.506Z,458.00
2023-06-11T00:28:52.551Z,455.00
2023-06-11T00:29:52.532Z,452.00
2023-06-11T00:30:52.544Z,453.00
2023-06-11T00:31:52.595Z,452.00
2023-06-11T00:32:52.623Z,451.00
2023-06-11T00:33:52.558Z,452.00
2023-06-11T00:34:52.574Z,453.00
2023-06-11T00:35:52.591Z,455.00
2023-06-11T00:36:52.585Z,459.00
2023-06-11T00:37:52.599Z,459.00
2023-06-11T00:38:52.612Z,456.00
2023-06-11T00:39:52.655Z,456.00
2023-06-11T00:40:52.644Z,454.00
2023-06-11T00:41:52.677Z,453.00
2023-06-11T00:42:52.676Z,456.00
2023-06-11T00:43:52.680Z,456.00
2023-06-11T00:44:52.698Z,456.00
2023-06-11T00:45:52.969Z,458.00
2023-06-11T00:46:52.716Z,457.00
2023-06-11T00:47:52.871Z,456.00
2023-06-11T00:48:52.784Z,456.00
2023-06-11T00:49:52.778Z,459.00
2023-06-11T00:50:52.870Z,459.00
2023-06-11T00:51:52.783Z,459.00
2023-06-11T00:52:52.788Z,458.00
2023-06-11T00:53:52.814Z,460.00
2023-06-11T00:54:52.804Z,460.00
2023-06-11T00:55:52.884Z,460.00
2023-06-11T00:56:52.886Z,459.00
2023-06-11T00:57:52.878Z,459.00
2023-06-11T00:58:52.922Z,462.00
2023-06-11T00:59:52.897Z,465.00
2023-06-11T01:00:52.974Z,465.00
2023-06-11T01:01:52.954Z,467.00
2023-06-11T01:02:53.019Z,469.00
2023-06-11T01:03:53.054Z,472.00
2023-06-11T01:04:53.054Z,472.00
2023-06-11T01:05:53.100Z,472.00
2023-06-11T01:06:53.046Z,473.00
2023-06-11T01:07:53.115Z,474.00
2023-06-11T01:08:53.145Z,473.00
2023-06-11T01:09:53.193Z,471.00
2023-06-11T01:10:53.300Z,469.00
2023-06-11T01:11:53.227Z,469.00
2023-06-11T01:12:53.287Z,471.00
2023-06-11T01:13:53.344Z,470.00
2023-06-11T01:14:53.359Z,472.00
2023-06-11T01:15:53.472Z,473.00
2023-06-11T01:16:53.643Z,476.00
2023-06-11T01:17:53.554Z,483.00
2023-06-11T01:18:53.545Z,482.00
2023-06-11T01:19:53.666Z,482.00
2023-06-11T01:20:53.643Z,486.00
2023-06-11T01:21:53.748Z,487.00
2023-06-11T01:22:53.758Z,487.00
2023-06-11T01:23:53.888Z,487.00
2023-06-11T01:24:53.841Z,488.00
2023-06-11T01:25:53.875Z,491.00
2023-06-11T01:26:53.943Z,491.00
2023-06-11T01:27:53.989Z,491.00
2023-06-11T01:28:54.049Z,491.00
2023-06-11T01:29:54.104Z,490.00
2023-06-11T01:30:54.260Z,487.00
2023-06-11T01:31:54.261Z,488.00
2023-06-11T01:32:54.430Z,487.00
2023-06-11T01:33:54.351Z,488.00
2023-06-11T01:34:54.400Z,484.00
2023-06-11T01:35:54.429Z,483.00
2023-06-11T01:36:54.502Z,483.00
2023-06-11T01:37:54.531Z,483.00
2023-06-11T01:38:54.605Z,486.00
2023-06-11T01:39:54.799Z,483.00
2023-06-11T01:40:54.748Z,482.00
2023-06-11T01:41:54.815Z,480.00
2023-06-11T01:42:54.832Z,479.00
2023-06-11T01:43:54.953Z,479.00
2023-06-11T01:44:54.942Z,476.00
2023-06-11T01:45:54.985Z,471.00
2023-06-11T01:46:55.100Z,471.00
2023-06-11T01:47:55.140Z,467.00
2023-06-11T01:48:55.155Z,466.00
2023-06-11T01:49:55.182Z,463.00
2023-06-11T01:50:55.292Z,459.00
2023-06-11T01:51:55.357Z,457.00
2023-06-11T01:52:55.400Z,453.00
2023-06-11T01:53:55.463Z,453.00
2023-06-11T01:54:55.493Z,454.00
2023-06-11T01:55:55.592Z,458.00
2023-06-11T01:56:55.650Z,461.00
2023-06-11T01:57:55.670Z,460.00
2023-06-11T01:58:55.728Z,459.00
2023-06-11T01:59:55.829Z,460.00
2023-06-11T02:00:55.911Z,462.00
2023-06-11T02:01:56.045Z,464.00
2023-06-11T02:02:56.064Z,460.00
2023-06-11T02:03:56.093Z,457.00
2023-06-11T02:04:56.105Z,455.00
2023-06-11T02:05:56.153Z,455.00
2023-06-11T02:06:56.226Z,459.00
2023-06-11T02:07:56.269Z,458.00
2023-06-11T02:08:56.309Z,461.00
2023-06-11T02:09:56.338Z,462.00
2023-06-11T02:10:56.467Z,464.00
2023-06-11T02:11:56.512Z,466.00
2023-06-11T02:12:56.603Z,468.00
2023-06-11T02:13:56.654Z,468.00
2023-06-11T02:14:56.691Z,468.00
2023-06-11T02:15:56.760Z,468.00
2023-06-11T02:16:56.914Z,469.00
2023-06-11T02:17:56.931Z,468.00
2023-06-11T02:18:56.945Z,466.00
2023-06-11T02:19:57.078Z,465.00
2023-06-11T02:20:57.086Z,464.00
2023-06-11T02:21:57.102Z,460.00
2023-06-11T02:22:57.140Z,459.00
2023-06-11T02:23:57.185Z,459.00
2023-06-11T02:24:57.219Z,459.00
2023-06-11T02:25:57.301Z,460.00
2023-06-11T02:26:57.280Z,461.00
2023-06-11T02:27:57.355Z,462.00
2023-06-11T02:28:57.397Z,463.00
2023-06-11T02:29:57.473Z,462.00
2023-06-11T02:30:57.518Z,462.00
2023-06-11T02:31:57.568Z,463.00
2023-06-11T02:32:57.631Z,463.00
2023-06-11T02:33:57.641Z,463.00
2023-06-11T02:34:57.617Z,462.00
2023-06-11T02:35:57.693Z,465.00
2023-06-11T02:36:57.763Z,462.00
2023-06-11T02:37:57.826Z,461.00
2023-06-11T02:38:57.864Z,462.00
2023-06-11T02:39:57.964Z,461.00
2023-06-11T02:40:58.033Z,460.00
2023-06-11T02:41:58.058Z,460.00
2023-06-11T02:42:58.112Z,459.00
2023-06-11T02:43:58.138Z,460.00
2023-06-11T02:44:58.153Z,461.00
2023-06-11T02:45:58.225Z,462.00
2023-06-11T02:46:58.256Z,460.00
2023-06-11T02:47:58.319Z,460.00
2023-06-11T02:48:58.296Z,460.00
2023-06-11T02:49:58.370Z,460.00
2023-06-11T02:50:58.420Z,460.00
2023-06-11T02:51:58.482Z,461.00
2023-06-11T02:52:58.551Z,462.00
2023-06-11T02:53:59.573Z,464.00
2023-06-11T02:54:58.652Z,465.00
2023-06-11T02:55:58.778Z,467.00
2023-06-11T02:56:58.805Z,467.00
2023-06-11T02:57:58.816Z,467.00
2023-06-11T02:58:58.920Z,465.00
2023-06-11T02:59:58.967Z,463.00
2023-06-11T03:00:59.009Z,461.00
2023-06-11T03:01:59.089Z,461.00
2023-06-11T03:02:59.140Z,463.00
2023-06-11T03:03:59.186Z,460.00
2023-06-11T03:04:59.258Z,455.00
2023-06-11T03:06:01.746Z,452.00
2023-06-11T03:06:59.214Z,454.00
2023-06-11T03:07:59.180Z,456.00
2023-06-11T03:08:59.198Z,459.00
2023-06-11T03:09:59.180Z,459.00
2023-06-11T03:10:59.204Z,460.00
2023-06-11T03:11:59.191Z,460.00
2023-06-11T03:12:59.174Z,461.00
2023-06-11T03:13:59.183Z,462.00
2023-06-11T03:14:59.158Z,465.00
2023-06-11T03:15:59.172Z,466.00
2023-06-11T03:16:59.138Z,465.00
2023-06-11T03:17:59.193Z,464.00
2023-06-11T03:18:59.091Z,466.00
2023-06-11T03:19:59.105Z,465.00
2023-06-11T03:20:59.210Z,464.00
2023-06-11T03:21:59.130Z,467.00
2023-06-11T03:22:59.085Z,469.00
2023-06-11T03:23:59.131Z,469.00
2023-06-11T03:24:59.090Z,467.00
2023-06-11T03:25:59.078Z,466.00
2023-06-11T03:26:59.107Z,463.00
2023-06-11T03:27:59.056Z,462.00
2023-06-11T03:28:59.032Z,462.00
2023-06-11T03:29:59.058Z,459.00
2023-06-11T03:30:59.076Z,457.00
2023-06-11T03:31:59.133Z,455.00
2023-06-11T03:32:59.080Z,454.00
2023-06-11T03:33:59.016Z,454.00
2023-06-11T03:34:59.034Z,453.00
2023-06-11T03:35:59.035Z,455.00
2023-06-11T03:36:59.045Z,454.00
2023-06-11T03:37:59.016Z,454.00
2023-06-11T03:38:58.970Z,453.00
2023-06-11T03:39:58.985Z,455.00
2023-06-11T03:40:58.987Z,456.00
2023-06-11T03:41:58.951Z,457.00
2023-06-11T03:43:00.806Z,455.00
2023-06-11T03:43:58.965Z,455.00
2023-06-11T03:44:58.935Z,457.00
2023-06-11T03:45:58.964Z,456.00
2023-06-11T03:46:58.974Z,454.00
2023-06-11T03:47:58.990Z,456.00
2023-06-11T03:48:58.998Z,456.00
2023-06-11T03:49:59.003Z,456.00
2023-06-11T03:50:59.009Z,457.00
2023-06-11T03:51:59.024Z,457.00
2023-06-11T03:52:59.073Z,457.00
2023-06-11T03:53:59.172Z,457.00
2023-06-11T03:54:59.246Z,457.00
2023-06-11T03:55:59.332Z,459.00
2023-06-11T03:56:59.304Z,458.00
2023-06-11T03:57:59.314Z,459.00
2023-06-11T03:58:59.368Z,457.00
2023-06-11T03:59:59.441Z,458.00
2023-06-11T04:00:59.455Z,454.00
2023-06-11T04:01:59.521Z,454.00
2023-06-11T04:03:00.568Z,456.00
2023-06-11T04:03:59.645Z,455.00
2023-06-11T04:04:59.603Z,451.00
2023-06-11T04:05:59.664Z,453.00
2023-06-11T04:06:59.738Z,452.00
2023-06-11T04:07:59.780Z,453.00
2023-06-11T04:08:59.811Z,454.00
2023-06-11T04:09:59.852Z,453.00
2023-06-11T04:10:59.930Z,453.00
2023-06-11T04:11:59.913Z,453.00
2023-06-11T04:12:59.984Z,453.00
2023-06-11T04:13:59.985Z,454.00
2023-06-11T04:15:00.049Z,454.00
2023-06-11T04:16:00.118Z,455.00
2023-06-11T04:17:00.163Z,455.00
2023-06-11T04:18:00.213Z,455.00
2023-06-11T04:19:00.161Z,454.00
2023-06-11T04:20:00.226Z,454.00
2023-06-11T04:21:00.240Z,453.00
2023-06-11T04:22:00.266Z,456.00
2023-06-11T04:23:00.307Z,456.00
2023-06-11T04:24:00.327Z,458.00
2023-06-11T04:25:00.319Z,462.00
2023-06-11T04:26:00.382Z,461.00
2023-06-11T04:27:00.370Z,462.00
2023-06-11T04:28:00.390Z,463.00
2023-06-11T04:29:00.391Z,461.00
2023-06-11T04:30:00.451Z,459.00
2023-06-11T04:31:00.486Z,460.00
2023-06-11T04:32:00.526Z,459.00
2023-06-11T04:33:00.639Z,457.00
2023-06-11T04:34:00.529Z,456.00
2023-06-11T04:35:00.558Z,456.00
2023-06-11T04:36:00.579Z,456.00
2023-06-11T04:37:00.614Z,458.00
2023-06-11T04:38:00.614Z,457.00
2023-06-11T04:39:00.613Z,454.00
2023-06-11T04:40:00.630Z,453.00
2023-06-11T04:41:00.654Z,452.00
2023-06-11T04:42:00.668Z,454.00
2023-06-11T04:43:00.651Z,456.00
2023-06-11T04:44:00.672Z,461.00
2023-06-11T04:45:00.655Z,462.00
2023-06-11T04:46:00.666Z,458.00
2023-06-11T04:47:00.698Z,457.00
2023-06-11T04:48:00.729Z,458.00
2023-06-11T04:49:00.669Z,458.00
2023-06-11T04:50:00.669Z,458.00
2023-06-11T04:51:00.702Z,455.00
2023-06-11T04:52:00.712Z,454.00
2023-06-11T04:53:00.719Z,452.00
2023-06-11T04:54:00.730Z,456.00
2023-06-11T04:55:00.763Z,458.00
2023-06-11T04:56:03.087Z,457.00
2023-06-11T04:57:00.747Z,457.00
2023-06-11T04:58:00.707Z,456.00
2023-06-11T04:59:00.721Z,456.00
2023-06-11T05:00:01.453Z,454.00
2023-06-11T05:01:00.712Z,455.00
2023-06-11T05:02:00.776Z,456.00
2023-06-11T05:03:00.725Z,457.00
2023-06-11T05:04:00.790Z,457.00
2023-06-11T05:05:00.737Z,455.00
2023-06-11T05:06:00.701Z,453.00
2023-06-11T05:07:00.672Z,454.00
2023-06-11T05:08:00.663Z,451.00
2023-06-11T05:09:00.633Z,450.00
2023-06-11T05:10:00.658Z,453.00
2023-06-11T05:11:00.637Z,453.00
2023-06-11T05:12:00.653Z,451.00
2023-06-11T05:13:00.606Z,450.00
2023-06-11T05:14:00.602Z,450.00
2023-06-11T05:15:00.608Z,451.00
2023-06-11T05:16:00.629Z,454.00
2023-06-11T05:17:00.697Z,455.00
2023-06-11T05:18:00.642Z,456.00
2023-06-11T05:19:00.596Z,456.00
2023-06-11T05:20:00.597Z,458.00
2023-06-11T05:21:00.604Z,456.00
2023-06-11T05:22:00.553Z,455.00
2023-06-11T05:23:00.645Z,455.00
2023-06-11T05:24:00.629Z,454.00
2023-06-11T05:25:00.613Z,454.00
2023-06-11T05:26:00.560Z,454.00
2023-06-11T05:27:00.530Z,452.00
2023-06-11T05:28:00.499Z,451.00
2023-06-11T05:29:00.517Z,450.00
2023-06-11T05:30:00.522Z,451.00
2023-06-11T05:31:00.551Z,451.00
2023-06-11T05:32:00.565Z,453.00
2023-06-11T05:33:00.596Z,453.00
2023-06-11T05:34:00.496Z,450.00
2023-06-11T05:35:00.482Z,450.00
2023-06-11T05:36:00.489Z,448.00
2023-06-11T05:37:00.481Z,447.00
2023-06-11T05:38:00.460Z,445.00
2023-06-11T05:39:00.482Z,443.00
2023-06-11T05:40:00.481Z,443.00
2023-06-11T05:41:00.504Z,443.00
2023-06-11T05:42:00.530Z,442.00
2023-06-11T05:43:00.569Z,441.00
2023-06-11T05:44:00.547Z,440.00
2023-06-11T05:45:00.548Z,437.00
2023-06-11T05:46:00.683Z,435.00
2023-06-11T05:47:00.744Z,434.00
2023-06-11T05:48:00.611Z,434.00
2023-06-11T05:49:00.603Z,435.00
2023-06-11T05:50:00.619Z,434.00
2023-06-11T05:51:00.668Z,436.00
2023-06-11T05:52:00.711Z,438.00
2023-06-11T05:53:00.772Z,440.00
2023-06-11T05:54:00.821Z,441.00
2023-06-11T05:55:00.926Z,442.00
2023-06-11T05:56:00.902Z,442.00
2023-06-11T05:57:00.974Z,442.00
2023-06-11T05:58:00.979Z,441.00
2023-06-11T05:59:01.024Z,439.00
2023-06-11T06:00:01.069Z,437.00
2023-06-11T06:01:01.141Z,436.00
2023-06-11T06:02:01.161Z,437.00
2023-06-11T06:03:01.277Z,438.00
2023-06-11T06:04:01.370Z,437.00
2023-06-11T06:05:01.360Z,439.00
2023-06-11T06:06:01.369Z,440.00
2023-06-11T06:07:01.391Z,439.00
2023-06-11T06:08:01.343Z,438.00
2023-06-11T06:09:01.350Z,437.00
2023-06-11T06:10:01.374Z,436.00
2023-06-11T06:11:01.353Z,436.00
2023-06-11T06:12:01.425Z,435.00
2023-06-11T06:13:01.426Z,431.00
2023-06-11T06:14:01.475Z,429.00
2023-06-11T06:15:01.535Z,429.00
2023-06-11T06:16:01.680Z,431.00
2023-06-11T06:17:01.617Z,434.00
2023-06-11T06:18:01.600Z,436.00
2023-06-11T06:19:01.681Z,435.00
2023-06-11T06:20:01.750Z,435.00
2023-06-11T06:21:01.793Z,434.00
2023-06-11T06:22:01.818Z,431.00
2023-06-11T06:23:01.777Z,430.00
2023-06-11T06:24:01.912Z,432.00
2023-06-11T06:25:02.260Z,431.00
2023-06-11T06:26:01.919Z,431.00
2023-06-11T06:27:01.911Z,434.00
2023-06-11T06:28:01.942Z,432.00
2023-06-11T06:29:01.950Z,429.00
2023-06-11T06:30:01.983Z,430.00
2023-06-11T06:31:02.048Z,428.00
2023-06-11T06:32:02.266Z,424.00
2023-06-11T06:33:02.135Z,424.00
2023-06-11T06:34:02.132Z,423.00
2023-06-11T06:35:02.224Z,422.00
2023-06-11T06:36:02.197Z,420.00
2023-06-11T06:37:02.192Z,417.00
2023-06-11T06:38:02.242Z,419.00
2023-06-11T06:39:02.268Z,421.00
2023-06-11T06:40:02.330Z,420.00
2023-06-11T06:41:02.358Z,422.00
2023-06-11T06:42:02.395Z,420.00
2023-06-11T06:43:02.427Z,422.00
2023-06-11T06:44:02.478Z,421.00
2023-06-11T06:45:02.471Z,422.00
2023-06-11T06:46:02.501Z,421.00
2023-06-11T06:47:02.509Z,417.00
2023-06-11T06:48:02.585Z,413.00
2023-06-11T06:49:02.616Z,411.00
2023-06-11T06:50:02.637Z,412.00
2023-06-11T06:51:03.387Z,415.00
2023-06-11T06:52:02.641Z,416.00
2023-06-11T06:53:02.705Z,415.00
2023-06-11T06:54:02.687Z,416.00
2023-06-11T06:55:02.711Z,417.00
2023-06-11T06:56:02.730Z,417.00
2023-06-11T06:57:02.801Z,415.00
2023-06-11T06:58:02.788Z,416.00
2023-06-11T06:59:02.826Z,417.00
2023-06-11T07:00:02.827Z,414.00
2023-06-11T07:01:02.867Z,415.00
2023-06-11T07:02:02.833Z,416.00
2023-06-11T07:03:02.937Z,416.00
2023-06-11T07:04:02.964Z,419.00
2023-06-11T07:05:03.010Z,416.00
2023-06-11T07:06:03.098Z,416.00
2023-06-11T07:07:03.124Z,415.00
2023-06-11T07:08:03.090Z,415.00
2023-06-11T07:09:03.120Z,415.00
2023-06-11T07:10:03.202Z,415.00
2023-06-11T07:11:03.229Z,414.00
2023-06-11T07:12:03.277Z,415.00
2023-06-11T07:13:03.315Z,416.00
2023-06-11T07:14:03.372Z,417.00
2023-06-11T07:15:03.415Z,417.00
2023-06-11T07:16:03.468Z,415.00
2023-06-11T07:17:03.453Z,415.00
2023-06-11T07:18:03.555Z,415.00
2023-06-11T07:19:03.525Z,413.00
2023-06-11T07:20:03.665Z,414.00
2023-06-11T07:21:03.620Z,416.00
2023-06-11T07:22:03.629Z,414.00
2023-06-11T07:23:03.620Z,414.00
2023-06-11T07:24:03.736Z,416.00
2023-06-11T07:25:03.747Z,418.00
2023-06-11T07:26:03.874Z,420.00
2023-06-11T07:27:03.782Z,421.00
2023-06-11T07:28:03.775Z,422.00
2023-06-11T07:29:03.824Z,425.00
2023-06-11T07:30:03.846Z,425.00
2023-06-11T07:31:03.961Z,426.00
2023-06-11T07:32:03.891Z,424.00
2023-06-11T07:33:03.951Z,424.00
2023-06-11T07:34:03.930Z,423.00
2023-06-11T07:35:03.970Z,425.00
2023-06-11T07:36:04.023Z,428.00
2023-06-11T07:37:04.075Z,430.00
2023-06-11T07:38:04.066Z,429.00
2023-06-11T07:39:04.061Z,428.00
2023-06-11T07:40:04.167Z,428.00
2023-06-11T07:41:04.172Z,427.00
2023-06-11T07:42:04.182Z,426.00
2023-06-11T07:43:04.203Z,425.00
2023-06-11T07:44:04.233Z,426.00
2023-06-11T07:45:04.250Z,429.00
2023-06-11T07:46:04.417Z,428.00
2023-06-11T07:47:04.440Z,428.00
2023-06-11T07:48:04.404Z,426.00
2023-06-11T07:49:04.394Z,426.00
2023-06-11T07:50:04.383Z,427.00
2023-06-11T07:51:04.394Z,423.00
2023-06-11T07:52:04.466Z,424.00
2023-06-11T07:53:04.557Z,424.00
2023-06-11T07:54:04.527Z,431.00
2023-06-11T07:55:04.521Z,433.00
2023-06-11T07:56:04.558Z,429.00
2023-06-11T07:57:04.573Z,429.00
2023-06-11T07:58:04.595Z,427.00
2023-06-11T07:59:04.587Z,427.00
2023-06-11T08:00:04.672Z,429.00
2023-06-11T08:01:04.722Z,428.00
2023-06-11T08:02:04.774Z,430.00
2023-06-11T08:03:04.866Z,430.00
2023-06-11T08:04:04.858Z,428.00
2023-06-11T08:05:04.890Z,427.00
2023-06-11T08:06:04.949Z,428.00
2023-06-11T08:07:04.874Z,430.00
2023-06-11T08:08:04.921Z,431.00
2023-06-11T08:09:04.963Z,431.00
2023-06-11T08:10:05.037Z,430.00
2023-06-11T08:11:05.117Z,430.00
2023-06-11T08:12:05.147Z,426.00
2023-06-11T08:13:05.171Z,425.00
2023-06-11T08:14:05.306Z,424.00
2023-06-11T08:15:05.244Z,425.00
2023-06-11T08:16:05.326Z,425.00
2023-06-11T08:17:05.492Z,426.00
2023-06-11T08:18:05.509Z,424.00
2023-06-11T08:19:05.434Z,423.00
2023-06-11T08:20:05.506Z,426.00
2023-06-11T08:21:05.515Z,427.00
2023-06-11T08:22:05.548Z,426.00
2023-06-11T08:23:05.533Z,424.00
2023-06-11T08:24:05.629Z,425.00
2023-06-11T08:25:05.626Z,426.00
2023-06-11T08:26:05.646Z,427.00
2023-06-11T08:27:05.679Z,424.00
2023-06-11T08:28:05.728Z,421.00
2023-06-11T08:29:05.728Z,417.00
2023-06-11T08:30:05.792Z,417.00
2023-06-11T08:31:05.808Z,416.00
2023-06-11T08:32:05.897Z,417.00
2023-06-11T08:33:05.856Z,418.00
2023-06-11T08:34:05.881Z,420.00
2023-06-11T08:35:05.896Z,415.00
2023-06-11T08:36:05.933Z,414.00
2023-06-11T08:37:05.950Z,413.00
2023-06-11T08:38:05.948Z,413.00
2023-06-11T08:39:05.948Z,413.00
2023-06-11T08:40:05.936Z,413.00
2023-06-11T08:41:06.002Z,414.00
2023-06-11T08:42:05.957Z,414.00
2023-06-11T08:43:05.982Z,413.00
2023-06-11T08:44:06.010Z,412.00
2023-06-11T08:45:06.024Z,412.00
2023-06-11T08:46:06.076Z,413.00
2023-06-11T08:47:06.065Z,416.00
2023-06-11T08:48:06.110Z,417.00
2023-06-11T08:49:06.048Z,416.00
2023-06-11T08:50:06.098Z,415.00
2023-06-11T08:51:06.123Z,415.00
2023-06-11T08:52:06.200Z,417.00
2023-06-11T08:53:06.191Z,418.00
2023-06-11T08:54:06.252Z,417.00
2023-06-11T08:55:06.297Z,416.00
2023-06-11T08:56:06.278Z,412.00
2023-06-11T08:57:06.272Z,411.00
2023-06-11T08:58:06.288Z,412.00
2023-06-11T08:59:06.290Z,412.00
2023-06-11T09:00:09.367Z,410.00
2023-06-11T09:01:06.318Z,409.00
2023-06-11T09:02:06.344Z,410.00
2023-06-11T09:03:06.345Z,411.00
2023-06-11T09:04:06.372Z,412.00
2023-06-11T09:05:06.320Z,414.00
2023-06-11T09:06:06.234Z,410.00
2023-06-11T09:07:06.271Z,406.00
2023-06-11T09:08:06.245Z,407.00
2023-06-11T09:09:06.255Z,408.00
2023-06-11T09:10:06.274Z,408.00
2023-06-11T09:11:06.214Z,408.00
2023-06-11T09:12:06.229Z,407.00
2023-06-11T09:13:06.177Z,411.00
2023-06-11T09:14:06.190Z,417.00
2023-06-11T09:15:06.193Z,416.00
2023-06-11T09:16:06.265Z,413.00
2023-06-11T09:17:06.193Z,413.00
2023-06-11T09:18:09.650Z,411.00
2023-06-11T09:19:07.203Z,412.00
2023-06-11T09:20:06.153Z,412.00
2023-06-11T09:21:06.181Z,411.00
2023-06-11T09:22:06.148Z,410.00
2023-06-11T09:23:06.147Z,408.00
2023-06-11T09:24:06.161Z,406.00
2023-06-11T09:25:06.105Z,408.00
2023-06-11T09:26:06.117Z,409.00
2023-06-11T09:27:06.090Z,411.00
2023-06-11T09:28:06.078Z,410.00
2023-06-11T09:29:06.118Z,407.00
2023-06-11T09:30:06.076Z,407.00
2023-06-11T09:31:06.096Z,408.00
2023-06-11T09:32:15.933Z,409.00
2023-06-11T09:33:07.148Z,413.00
2023-06-11T09:34:06.049Z,414.00
2023-06-11T09:35:06.051Z,412.00
2023-06-11T09:36:06.068Z,409.00
2023-06-11T09:37:06.065Z,410.00
2023-06-11T09:38:06.024Z,410.00
2023-06-11T09:39:05.994Z,415.00
2023-06-11T09:40:06.020Z,417.00
2023-06-11T09:41:06.028Z,416.00
2023-06-11T09:42:06.066Z,415.00
2023-06-11T09:43:06.208Z,414.00
2023-06-11T09:44:06.193Z,413.00
2023-06-11T09:45:06.257Z,413.00
2023-06-11T09:46:06.370Z,414.00
2023-06-11T09:47:08.228Z,414.00
2023-06-11T09:48:06.473Z,415.00
2023-06-11T09:49:06.326Z,412.00
2023-06-11T09:50:06.378Z,413.00
2023-06-11T09:51:06.376Z,412.00
2023-06-11T09:52:06.352Z,411.00
2023-06-11T09:53:06.355Z,411.00
2023-06-11T09:54:06.317Z,410.00
2023-06-11T09:55:06.345Z,413.00
2023-06-11T09:56:11.556Z,416.00
2023-06-11T09:57:07.302Z,415.00
2023-06-11T09:58:06.316Z,416.00
2023-06-11T09:59:06.348Z,414.00
2023-06-11T10:00:06.246Z,415.00
2023-06-11T10:01:07.695Z,414.00
2023-06-11T10:02:06.268Z,415.00
2023-06-11T10:03:06.372Z,416.00
2023-06-11T10:04:06.250Z,414.00
2023-06-11T10:05:06.271Z,412.00
2023-06-11T10:06:06.248Z,412.00
2023-06-11T10:07:06.230Z,412.00
2023-06-11T10:08:06.297Z,411.00
2023-06-11T10:09:06.238Z,411.00
2023-06-11T10:10:06.196Z,410.00
2023-06-11T10:11:06.252Z,411.00
2023-06-11T10:12:06.222Z,411.00
2023-06-11T10:13:06.150Z,412.00
2023-06-11T10:14:06.201Z,412.00
2023-06-11T10:15:06.240Z,412.00
2023-06-11T10:16:06.321Z,413.00
2023-06-11T10:17:06.351Z,414.00
2023-06-11T10:18:06.467Z,413.00
2023-06-11T10:19:06.431Z,414.00
2023-06-11T10:20:06.493Z,415.00
2023-06-11T10:21:06.577Z,417.00
2023-06-11T10:22:06.582Z,418.00
2023-06-11T10:23:07.752Z,420.00
2023-06-11T10:24:06.633Z,415.00
2023-06-11T10:25:06.608Z,410.00
2023-06-11T10:26:06.663Z,413.00
2023-06-11T10:27:06.765Z,414.00
2023-06-11T10:28:06.590Z,415.00
2023-06-11T10:29:07.313Z,413.00
2023-06-11T10:30:06.733Z,413.00
2023-06-11T10:31:06.760Z,413.00
2023-06-11T10:32:06.784Z,414.00
2023-06-11T10:33:07.019Z,416.00
2023-06-11T10:34:06.973Z,415.00
2023-06-11T10:35:07.054Z,414.00
2023-06-11T10:36:07.031Z,412.00
2023-06-11T10:37:07.077Z,412.00
2023-06-11T10:38:07.124Z,410.00
2023-06-11T10:39:07.651Z,411.00
2023-06-11T10:40:07.278Z,410.00
2023-06-11T10:41:07.271Z,410.00
2023-06-11T10:42:07.231Z,411.00
2023-06-11T10:43:07.328Z,412.00
2023-06-11T10:44:07.296Z,410.00
2023-06-11T10:45:07.308Z,411.00
2023-06-11T10:46:07.321Z,408.00
2023-06-11T10:47:07.397Z,408.00
2023-06-11T10:48:07.535Z,409.00
2023-06-11T10:49:07.445Z,410.00
2023-06-11T10:50:07.604Z,408.00
2023-06-11T10:51:07.604Z,409.00
2023-06-11T10:52:07.654Z,406.00
2023-06-11T10:53:07.710Z,405.00
2023-06-11T10:54:07.732Z,406.00
2023-06-11T10:55:07.913Z,407.00
2023-06-11T10:56:07.815Z,405.00
2023-06-11T10:57:07.857Z,406.00
2023-06-11T10:58:07.884Z,405.00
2023-06-11T10:59:07.973Z,407.00
2023-06-11T11:00:08.007Z,407.00
2023-06-11T11:01:07.978Z,409.00
2023-06-11T11:02:08.053Z,411.00
2023-06-11T11:03:08.077Z,410.00
2023-06-11T11:04:08.097Z,410.00
2023-06-11T11:05:08.158Z,411.00
2023-06-11T11:06:08.156Z,411.00
2023-06-11T11:07:08.221Z,411.00
2023-06-11T11:08:08.226Z,410.00
2023-06-11T11:09:08.250Z,409.00
2023-06-11T11:10:08.257Z,409.00
2023-06-11T11:11:08.300Z,409.00
2023-06-11T11:12:08.264Z,408.00
2023-06-11T11:13:08.269Z,410.00
2023-06-11T11:14:08.271Z,412.00
2023-06-11T11:15:08.437Z,413.00
2023-06-11T11:16:08.374Z,411.00
2023-06-11T11:17:08.413Z,410.00
2023-06-11T11:18:08.372Z,410.00
2023-06-11T11:19:08.356Z,409.00
2023-06-11T11:20:08.410Z,409.00
2023-06-11T11:21:08.466Z,409.00
2023-06-11T11:22:08.531Z,410.00
2023-06-11T11:23:08.598Z,408.00
2023-06-11T11:24:08.665Z,408.00
2023-06-11T11:25:08.884Z,409.00
2023-06-11T11:26:08.676Z,408.00
2023-06-11T11:27:08.701Z,408.00
2023-06-11T11:28:08.679Z,409.00
2023-06-11T11:29:08.687Z,409.00
2023-06-11T11:30:08.822Z,408.00
2023-06-11T11:31:08.738Z,406.00
2023-06-11T11:32:08.795Z,408.00
2023-06-11T11:33:08.910Z,414.00
2023-06-11T11:34:08.909Z,424.00
2023-06-11T11:35:08.921Z,427.00
2023-06-11T11:36:09.046Z,425.00
2023-06-11T11:37:09.047Z,422.00
2023-06-11T11:38:09.167Z,419.00
2023-06-11T11:39:09.057Z,417.00
2023-06-11T11:40:09.157Z,417.00
2023-06-11T11:41:09.170Z,415.00
2023-06-11T11:42:09.152Z,415.00
2023-06-11T11:43:09.199Z,412.00
2023-06-11T11:44:09.191Z,410.00
2023-06-11T11:45:09.144Z,406.00
2023-06-11T11:46:09.226Z,407.00
2023-06-11T11:47:09.255Z,406.00
2023-06-11T11:48:09.605Z,407.00
2023-06-11T11:49:09.335Z,409.00
2023-06-11T11:50:09.553Z,408.00
2023-06-11T11:51:09.453Z,404.00
2023-06-11T11:52:09.441Z,404.00
2023-06-11T11:53:09.448Z,402.00
2023-06-11T11:54:09.519Z,403.00
2023-06-11T11:55:09.578Z,401.00
2023-06-11T11:56:09.597Z,401.00
2023-06-11T11:57:09.587Z,400.00
2023-06-11T11:58:09.570Z,403.00
2023-06-11T11:59:09.599Z,405.00
2023-06-11T12:00:09.894Z,408.00
2023-06-11T12:01:09.621Z,406.00
2023-06-11T12:02:09.714Z,408.00
2023-06-11T12:03:09.824Z,409.00
2023-06-11T12:04:09.765Z,410.00
2023-06-11T12:05:09.836Z,410.00
2023-06-11T12:06:10.010Z,408.00
2023-06-11T12:07:09.921Z,408.00
2023-06-11T12:08:09.972Z,408.00
2023-06-11T12:09:10.007Z,409.00
2023-06-11T12:10:10.365Z,412.00
2023-06-11T12:11:10.498Z,410.00
2023-06-11T12:12:10.170Z,410.00
2023-06-11T12:13:10.215Z,411.00
2023-06-11T12:14:10.215Z,412.00
2023-06-11T12:15:10.205Z,413.00
2023-06-11T12:16:10.318Z,412.00
2023-06-11T12:17:10.280Z,410.00
2023-06-11T12:18:10.284Z,411.00
2023-06-11T12:19:22.709Z,413.00
2023-06-11T12:20:11.573Z,412.00
2023-06-11T12:21:10.291Z,413.00
2023-06-11T12:22:10.356Z,410.00
2023-06-11T12:23:10.323Z,410.00
2023-06-11T12:24:10.398Z,409.00
2023-06-11T12:25:10.374Z,409.00
2023-06-11T12:26:10.300Z,408.00
2023-06-11T12:27:13.010Z,416.00
2023-06-11T12:28:10.306Z,412.00
2023-06-11T12:29:10.247Z,415.00